createdAt,value
2023-04-29T00:00:16.384Z,24.90
2023-04-29T00:03:26.033Z,24.90
2023-04-29T00:06:38.627Z,24.80
2023-04-29T00:09:48.974Z,24.80
2023-04-29T00:13:00.100Z,24.70
2023-04-29T00:16:11.563Z,24.60
2023-04-29T00:19:24.288Z,24.60
2023-04-29T00:22:35.447Z,24.50
2023-04-29T00:25:48.516Z,24.50
2023-04-29T00:32:14.262Z,24.40
2023-04-29T00:35:27.920Z,24.50
2023-04-29T00:38:41.419Z,24.50
2023-04-29T00:41:54.210Z,24.50
2023-04-29T00:45:08.273Z,24.40
2023-04-29T00:48:19.570Z,24.40
2023-04-29T00:51:30.698Z,24.40
2023-04-29T00:54:44.362Z,24.40
2023-04-29T00:57:56.292Z,24.30
2023-04-29T01:01:08.401Z,24.30
2023-04-29T01:04:20.413Z,24.30
2023-04-29T01:07:34.272Z,24.30
2023-04-29T01:10:50.546Z,24.30
2023-04-29T01:14:04.305Z,24.30
2023-04-29T01:17:14.616Z,24.30
2023-04-29T01:20:29.218Z,24.20
2023-04-29T01:23:41.010Z,24.20
2023-04-29T01:26:55.913Z,24.20
2023-04-29T01:30:09.385Z,24.10
2023-04-29T01:33:23.576Z,24.10
2023-04-29T01:36:39.316Z,24.10
2023-04-29T01:39:51.955Z,24.10
2023-04-29T01:43:05.540Z,24.10
2023-04-29T01:46:18.963Z,24.10
2023-04-29T01:49:31.583Z,24.10
2023-04-29T01:52:43.845Z,24.10
2023-04-29T01:55:54.257Z,24.10
2023-04-29T01:59:09.818Z,24.10
2023-04-29T02:02:24.054Z,24.00
2023-04-29T02:05:34.824Z,24.10
2023-04-29T02:08:46.855Z,24.00
2023-04-29T02:11:59.171Z,24.00
2023-04-29T02:15:14.544Z,24.00
2023-04-29T02:18:29.554Z,24.00
2023-04-29T02:21:40.888Z,23.90
2023-04-29T02:24:48.506Z,23.90
2023-04-29T02:28:03.727Z,23.90
2023-04-29T02:31:16.809Z,24.00
2023-04-29T02:34:28.594Z,24.00
2023-04-29T02:37:40.536Z,23.90
2023-04-29T02:40:50.621Z,23.90
2023-04-29T02:44:03.806Z,23.90
2023-04-29T02:47:13.542Z,23.90
2023-04-29T02:50:27.229Z,23.90
2023-04-29T02:53:39.917Z,23.80
2023-04-29T02:56:55.521Z,23.80
2023-04-29T03:00:06.773Z,23.70
2023-04-29T03:03:20.257Z,23.80
2023-04-29T03:06:28.847Z,23.80
2023-04-29T03:09:42.693Z,23.70
2023-04-29T03:12:56.015Z,23.80
2023-04-29T03:16:04.908Z,23.80
2023-04-29T03:19:17.050Z,23.80
2023-04-29T03:22:30.299Z,23.70
2023-04-29T03:25:43.666Z,23.70
2023-04-29T03:28:54.247Z,23.70
2023-04-29T03:32:04.501Z,23.70
2023-04-29T03:35:15.988Z,23.70
2023-04-29T03:38:29.461Z,23.60
2023-04-29T03:41:41.619Z,23.60
2023-04-29T03:44:52.489Z,23.60
2023-04-29T03:48:01.128Z,23.60
2023-04-29T03:51:13.987Z,23.60
2023-04-29T03:54:27.552Z,23.60
2023-04-29T03:57:40.378Z,23.60
2023-04-29T04:00:51.560Z,23.60
2023-04-29T04:04:04.355Z,23.60
2023-04-29T04:07:15.437Z,23.60
2023-04-29T04:10:30.961Z,23.60
2023-04-29T04:13:43.509Z,23.60
2023-04-29T04:16:54.945Z,23.60
2023-04-29T04:20:06.048Z,23.60
2023-04-29T04:23:17.661Z,23.50
2023-04-29T04:26:30.365Z,23.50
2023-04-29T04:29:43.482Z,23.50
2023-04-29T04:32:52.430Z,23.50
2023-04-29T04:36:03.213Z,23.50
2023-04-29T04:39:15.345Z,23.40
2023-04-29T04:42:27.619Z,23.40
2023-04-29T04:45:41.193Z,23.50
2023-04-29T04:48:52.594Z,23.50
2023-04-29T04:52:03.732Z,23.40
2023-04-29T04:55:15.126Z,23.40
2023-04-29T04:58:28.075Z,23.40
2023-04-29T05:01:36.766Z,23.30
2023-04-29T05:04:48.936Z,23.40
2023-04-29T05:07:59.142Z,23.30
2023-04-29T05:11:12.376Z,23.40
2023-04-29T05:14:21.097Z,23.30
2023-04-29T05:17:35.107Z,23.30
2023-04-29T05:20:48.144Z,23.30
2023-04-29T05:23:57.993Z,23.30
2023-04-29T05:27:09.628Z,23.20
2023-04-29T05:30:22.373Z,23.30
2023-04-29T05:33:35.737Z,23.30
2023-04-29T05:36:45.460Z,23.30
2023-04-29T05:39:53.583Z,23.20
2023-04-29T05:43:03.888Z,23.20
2023-04-29T05:46:18.225Z,23.30
2023-04-29T05:49:30.635Z,23.30
2023-04-29T05:52:43.965Z,23.20
2023-04-29T05:55:56.665Z,23.20
2023-04-29T05:59:10.825Z,23.20
2023-04-29T06:02:20.417Z,23.20
2023-04-29T06:05:31.984Z,23.20
2023-04-29T06:08:45.310Z,23.10
2023-04-29T06:11:57.268Z,23.10
2023-04-29T06:15:12.953Z,23.10
2023-04-29T06:18:22.358Z,23.10
2023-04-29T06:21:30.443Z,23.10
2023-04-29T06:24:44.922Z,23.10
2023-04-29T06:27:54.654Z,23.10
2023-04-29T06:31:06.516Z,23.10
2023-04-29T06:34:19.254Z,23.10
2023-04-29T06:37:31.613Z,23.10
2023-04-29T06:40:42.075Z,23.00
2023-04-29T06:43:54.116Z,23.10
2023-04-29T06:47:03.979Z,23.10
2023-04-29T06:50:19.923Z,23.00
2023-04-29T06:53:31.662Z,23.00
2023-04-29T06:56:43.179Z,22.90
2023-04-29T06:59:54.426Z,23.00
2023-04-29T07:03:06.006Z,23.00
2023-04-29T07:06:16.304Z,23.00
2023-04-29T07:09:29.841Z,23.00
2023-04-29T07:12:40.035Z,22.90
2023-04-29T07:15:50.855Z,22.90
2023-04-29T07:19:02.639Z,22.90
2023-04-29T07:22:14.846Z,22.90
2023-04-29T07:25:22.256Z,22.80
2023-04-29T07:28:33.416Z,22.80
2023-04-29T07:31:43.033Z,22.80
2023-04-29T07:34:54.040Z,22.90
2023-04-29T07:38:06.976Z,22.80
2023-04-29T07:41:22.140Z,22.70
2023-04-29T07:44:33.614Z,22.80
2023-04-29T07:47:42.313Z,22.80
2023-04-29T07:50:54.314Z,22.80
2023-04-29T07:54:07.271Z,22.80
2023-04-29T07:57:24.405Z,22.70
2023-04-29T08:00:37.760Z,22.80
2023-04-29T08:03:52.503Z,22.80
2023-04-29T08:07:08.384Z,22.80
2023-04-29T08:10:20.281Z,22.80
2023-04-29T08:13:31.746Z,22.70
2023-04-29T08:16:43.296Z,22.70
2023-04-29T08:19:53.842Z,22.80
2023-04-29T08:23:06.614Z,22.70
2023-04-29T08:26:18.481Z,22.60
2023-04-29T08:29:29.572Z,22.60
2023-04-29T08:32:41.721Z,22.70
2023-04-29T08:35:52.579Z,22.70
2023-04-29T08:39:03.032Z,22.60
2023-04-29T08:42:17.433Z,22.60
2023-04-29T08:45:27.370Z,22.50
2023-04-29T08:48:36.764Z,22.60
2023-04-29T08:51:47.014Z,22.60
2023-04-29T08:55:00.128Z,22.60
2023-04-29T08:58:10.961Z,22.50
2023-04-29T09:01:24.466Z,22.50
2023-04-29T09:04:41.301Z,22.50
2023-04-29T09:07:53.755Z,22.50
2023-04-29T09:11:02.448Z,22.50
2023-04-29T09:14:15.422Z,22.50
2023-04-29T09:17:26.602Z,22.60
2023-04-29T09:20:39.061Z,22.60
2023-04-29T09:23:52.113Z,22.50
2023-04-29T09:27:03.093Z,22.40
2023-04-29T09:30:15.652Z,22.40
2023-04-29T09:33:26.106Z,22.50
2023-04-29T09:36:55.919Z,22.50
2023-04-29T09:40:11.753Z,22.40
2023-04-29T09:43:20.026Z,22.40
2023-04-29T09:46:33.326Z,22.30
2023-04-29T09:49:42.360Z,22.40
2023-04-29T09:52:57.708Z,22.30
2023-04-29T09:56:08.591Z,22.30
2023-04-29T09:59:21.166Z,22.30
2023-04-29T10:02:31.443Z,22.30
2023-04-29T10:05:43.575Z,22.40
2023-04-29T10:08:56.723Z,22.30
2023-04-29T10:12:08.426Z,22.20
2023-04-29T10:15:22.913Z,22.30
2023-04-29T10:18:37.847Z,22.30
2023-04-29T10:21:51.180Z,22.30
2023-04-29T10:25:02.632Z,22.20
2023-04-29T10:28:10.400Z,22.20
2023-04-29T10:31:22.045Z,22.20
2023-04-29T10:34:35.280Z,22.20
2023-04-29T10:37:43.109Z,22.30
2023-04-29T10:40:57.108Z,22.50
2023-04-29T10:44:06.997Z,22.60
2023-04-29T10:47:30.677Z,22.70
2023-04-29T10:50:42.865Z,22.80
2023-04-29T10:54:10.899Z,23.00
2023-04-29T10:57:31.110Z,23.10
2023-04-29T11:00:41.305Z,23.20
2023-04-29T11:04:13.295Z,23.40
2023-04-29T11:07:34.425Z,23.40
2023-04-29T11:10:45.684Z,23.40
2023-04-29T11:13:57.595Z,23.40
2023-04-29T11:17:08.707Z,23.30
2023-04-29T11:20:19.782Z,23.30
2023-04-29T11:23:34.143Z,23.30
2023-04-29T11:26:46.789Z,23.40
2023-04-29T11:30:00.311Z,23.50
2023-04-29T11:33:11.537Z,23.60
2023-04-29T11:36:25.142Z,23.60
2023-04-29T11:39:35.753Z,23.50
2023-04-29T11:42:50.532Z,23.40
2023-04-29T11:46:02.231Z,23.40
2023-04-29T11:49:13.328Z,23.30
2023-04-29T11:52:23.473Z,23.30
2023-04-29T11:55:31.873Z,23.30
2023-04-29T11:58:47.070Z,23.40
2023-04-29T12:01:59.271Z,23.50
2023-04-29T12:05:17.820Z,23.50
2023-04-29T12:08:30.502Z,23.50
2023-04-29T12:11:41.857Z,23.40
2023-04-29T12:14:55.135Z,23.40
2023-04-29T12:18:07.629Z,23.40
2023-04-29T12:21:18.910Z,23.30
2023-04-29T12:24:31.852Z,23.40
2023-04-29T12:27:42.414Z,23.50
2023-04-29T12:30:52.879Z,23.60
2023-04-29T12:34:02.523Z,23.70
2023-04-29T12:37:13.716Z,23.70
2023-04-29T12:40:25.335Z,23.80
2023-04-29T12:43:35.916Z,24.00
2023-04-29T12:46:46.599Z,24.00
2023-04-29T12:49:58.825Z,24.00
2023-04-29T12:53:07.077Z,24.10
2023-04-29T12:56:22.400Z,24.10
2023-04-29T12:59:35.427Z,24.00
2023-04-29T13:02:49.601Z,24.00
2023-04-29T13:06:01.990Z,24.10
2023-04-29T13:09:18.892Z,24.20
2023-04-29T13:12:27.116Z,24.30
2023-04-29T13:15:39.269Z,24.40
2023-04-29T13:19:08.255Z,24.40
2023-04-29T13:22:02.059Z,24.40
2023-04-29T13:25:13.022Z,24.40
2023-04-29T13:28:24.611Z,24.30
2023-04-29T13:31:36.956Z,24.20
2023-04-29T13:34:49.575Z,24.20
2023-04-29T13:38:04.397Z,24.20
2023-04-29T13:41:20.349Z,24.10
2023-04-29T13:44:35.786Z,24.10
2023-04-29T13:47:57.583Z,24.10
2023-04-29T13:54:37.343Z,24.20
2023-04-29T13:58:03.009Z,24.30
2023-04-29T14:00:55.082Z,24.20
2023-04-29T14:03:39.331Z,24.10
2023-04-29T14:06:51.826Z,24.10
2023-04-29T14:09:59.729Z,24.00
2023-04-29T14:13:11.289Z,24.00
2023-04-29T14:16:23.057Z,23.90
2023-04-29T14:19:36.212Z,24.00
2023-04-29T14:22:49.898Z,24.10
2023-04-29T14:29:14.114Z,24.20
2023-04-29T14:32:21.744Z,24.20
2023-04-29T14:35:33.559Z,24.30
2023-04-29T14:38:46.302Z,24.10
2023-04-29T14:41:58.721Z,24.10
2023-04-29T14:45:11.915Z,24.00
2023-04-29T14:48:20.132Z,23.90
2023-04-29T14:51:30.157Z,24.00
2023-04-29T14:54:44.650Z,24.10
2023-04-29T14:57:53.872Z,24.20
2023-04-29T15:01:08.456Z,24.30
2023-04-29T15:04:21.442Z,24.30
2023-04-29T15:07:34.234Z,24.20
2023-04-29T15:10:44.928Z,24.10
2023-04-29T15:13:55.380Z,24.10
2023-04-29T15:17:05.383Z,24.00
2023-04-29T15:20:18.599Z,23.90
2023-04-29T15:23:27.041Z,23.90
2023-04-29T15:26:39.992Z,23.90
2023-04-29T15:29:51.602Z,23.80
2023-04-29T15:33:02.090Z,23.90
2023-04-29T15:36:13.869Z,24.00
2023-04-29T15:39:24.356Z,24.10
2023-04-29T15:42:37.063Z,24.20
2023-04-29T15:45:46.023Z,24.30
2023-04-29T15:48:57.946Z,24.30
2023-04-29T15:52:07.238Z,24.30
2023-04-29T15:55:18.895Z,24.20
2023-04-29T15:58:32.591Z,24.20
2023-04-29T16:01:45.016Z,24.10
2023-04-29T16:04:56.645Z,24.10
2023-04-29T16:08:08.451Z,24.10
2023-04-29T16:11:23.936Z,24.10
2023-04-29T16:14:32.826Z,24.10
2023-04-29T16:17:45.567Z,24.00
2023-04-29T16:20:58.205Z,24.10
2023-04-29T16:24:09.622Z,24.00
2023-04-29T16:27:18.299Z,24.00
2023-04-29T16:30:31.852Z,24.00
2023-04-29T16:33:40.584Z,24.00
2023-04-29T16:36:54.193Z,24.00
2023-04-29T16:40:07.138Z,24.00
2023-04-29T16:43:16.595Z,24.00
2023-04-29T16:46:29.089Z,24.00
2023-04-29T16:49:40.157Z,24.00
2023-04-29T16:52:53.230Z,24.00
2023-04-29T16:56:05.929Z,24.00
2023-04-29T16:59:18.664Z,24.00
2023-04-29T17:02:29.645Z,24.00
2023-04-29T17:05:39.576Z,24.00
2023-04-29T17:08:51.663Z,24.10
2023-04-29T17:12:05.026Z,24.20
2023-04-29T17:15:11.709Z,24.40
2023-04-29T17:18:23.088Z,24.60
2023-04-29T17:21:35.377Z,24.60
2023-04-29T17:24:45.441Z,24.50
2023-04-29T17:27:57.133Z,24.50
2023-04-29T17:31:09.444Z,24.40
2023-04-29T17:34:25.338Z,24.40
2023-04-29T17:37:36.283Z,24.40
2023-04-29T17:40:46.451Z,24.40
2023-04-29T17:43:56.036Z,24.30
2023-04-29T17:47:08.865Z,24.30
2023-04-29T17:50:17.647Z,24.20
2023-04-29T17:53:30.173Z,24.30
2023-04-29T17:56:42.987Z,24.40
2023-04-29T17:59:57.756Z,24.30
2023-04-29T18:03:10.625Z,24.30
2023-04-29T18:06:22.727Z,24.30
2023-04-29T18:09:36.619Z,24.30
2023-04-29T18:12:49.474Z,24.30
2023-04-29T18:15:58.363Z,24.20
2023-04-29T18:19:12.395Z,24.20
2023-04-29T18:22:22.171Z,24.20
2023-04-29T18:25:35.132Z,24.20
2023-04-29T18:28:45.681Z,24.20
2023-04-29T18:31:56.442Z,24.20
2023-04-29T18:35:08.513Z,24.20
2023-04-29T18:38:20.784Z,24.20
2023-04-29T18:41:29.883Z,24.20
2023-04-29T18:44:42.791Z,24.20
2023-04-29T18:47:55.626Z,24.20
2023-04-29T18:51:06.567Z,24.20
2023-04-29T18:54:20.078Z,24.20
2023-04-29T18:57:30.126Z,24.20
2023-04-29T19:03:57.961Z,24.20
2023-04-29T19:07:11.169Z,24.20
2023-04-29T19:10:22.310Z,24.20
2023-04-29T19:13:32.296Z,24.20
2023-04-29T19:16:45.004Z,24.20
2023-04-29T19:19:58.693Z,24.30
2023-04-29T19:23:13.161Z,24.20
2023-04-29T19:26:24.788Z,24.20
2023-04-29T19:29:38.142Z,24.20
2023-04-29T19:32:50.895Z,24.20
2023-04-29T19:36:04.204Z,24.20
2023-04-29T19:39:19.059Z,24.10
2023-04-29T19:42:30.359Z,24.20
2023-04-29T19:45:40.003Z,24.10
2023-04-29T19:48:50.274Z,24.10
2023-04-29T19:51:58.796Z,24.10
2023-04-29T19:55:10.556Z,24.10
2023-04-29T19:58:23.936Z,24.10
2023-04-29T20:01:32.056Z,24.10
2023-04-29T20:04:43.730Z,24.10
2023-04-29T20:07:54.292Z,24.20
2023-04-29T20:11:06.404Z,24.30
2023-04-29T20:14:21.911Z,24.50
2023-04-29T20:17:30.865Z,24.50
2023-04-29T20:20:43.386Z,24.40
2023-04-29T20:23:55.203Z,24.40
2023-04-29T20:27:06.616Z,24.30
2023-04-29T20:30:16.305Z,24.20
2023-04-29T20:33:28.820Z,24.20
2023-04-29T20:36:42.779Z,24.20
2023-04-29T20:39:54.526Z,24.20
2023-04-29T20:43:05.408Z,24.10
2023-04-29T20:46:16.642Z,24.10
2023-04-29T20:49:27.863Z,24.10
2023-04-29T20:52:36.360Z,24.20
2023-04-29T20:55:47.012Z,24.40
2023-04-29T20:59:01.955Z,24.50
2023-04-29T21:02:13.023Z,24.50
2023-04-29T21:05:25.613Z,24.50
2023-04-29T21:08:37.328Z,24.40
2023-04-29T21:11:50.744Z,24.40
2023-04-29T21:14:59.603Z,24.30
2023-04-29T21:18:09.952Z,24.20
2023-04-29T21:21:24.169Z,24.20
2023-04-29T21:24:36.465Z,24.20
2023-04-29T21:27:50.159Z,24.20
2023-04-29T21:31:03.427Z,24.30
2023-04-29T21:34:12.045Z,24.40
2023-04-29T21:37:21.920Z,24.60
2023-04-29T21:40:35.736Z,24.60
2023-04-29T21:43:45.364Z,24.60
2023-04-29T21:46:57.015Z,24.50
2023-04-29T21:50:07.439Z,24.50
2023-04-29T21:53:21.396Z,24.40
2023-04-29T21:56:33.455Z,24.50
2023-04-29T21:59:45.306Z,24.50
2023-04-29T22:02:56.539Z,24.40
2023-04-29T22:06:09.328Z,24.40
2023-04-29T22:09:22.676Z,24.40
2023-04-29T22:12:35.891Z,24.40
2023-04-29T22:15:44.676Z,24.40
2023-04-29T22:18:54.113Z,24.30
2023-04-29T22:22:04.750Z,24.30
2023-04-29T22:25:23.938Z,24.30
2023-04-29T22:28:35.875Z,24.30
2023-04-29T22:31:47.104Z,24.50
2023-04-29T22:35:01.149Z,24.70
2023-04-29T22:38:13.229Z,24.90
2023-04-29T22:41:22.781Z,25.10
2023-04-29T22:44:38.196Z,25.20
2023-04-29T22:47:50.643Z,25.30
2023-04-29T22:51:00.965Z,25.30
2023-04-29T22:54:13.656Z,25.20
2023-04-29T22:57:22.222Z,25.10
2023-04-29T23:00:37.002Z,25.00
2023-04-29T23:03:47.571Z,25.00
2023-04-29T23:06:59.192Z,24.90
2023-04-29T23:10:11.660Z,24.90
2023-04-29T23:13:22.111Z,25.10
2023-04-29T23:16:35.484Z,25.20
2023-04-29T23:19:47.934Z,25.40
2023-04-29T23:22:57.369Z,25.40
2023-04-29T23:26:07.587Z,25.30
2023-04-29T23:29:19.918Z,25.20
2023-04-29T23:32:29.848Z,25.10
2023-04-29T23:35:44.071Z,25.00
2023-04-29T23:38:53.984Z,25.00
2023-04-29T23:42:04.928Z,24.90
2023-04-29T23:45:16.335Z,24.90
2023-04-29T23:48:30.577Z,25.00
2023-04-29T23:51:42.207Z,25.20
2023-04-29T23:54:54.328Z,25.30
2023-04-29T23:58:05.619Z,25.40
